createdAt,value
2017-07-23T00:01:25.672Z,89.00
2017-07-23T00:03:52.760Z,89.00
2017-07-23T00:06:19.421Z,86.80
2017-07-23T00:08:46.545Z,86.80
2017-07-23T00:11:12.813Z,88.10
2017-07-23T00:13:39.081Z,89.60
2017-07-23T00:16:06.001Z,87.70
2017-07-23T00:18:32.313Z,88.50
2017-07-23T00:20:58.587Z,88.40
2017-07-23T00:23:24.861Z,89.50
2017-07-23T00:25:51.138Z,91.20
2017-07-23T00:28:17.419Z,90.40
2017-07-23T00:30:43.689Z,90.20
2017-07-23T00:33:09.973Z,90.30
2017-07-23T00:35:36.239Z,89.90
2017-07-23T00:38:02.536Z,89.40
2017-07-23T00:40:28.797Z,88.50
2017-07-23T00:42:55.073Z,87.80
2017-07-23T00:45:21.706Z,87.20
2017-07-23T00:47:48.388Z,86.70
2017-07-23T00:50:14.652Z,86.70
2017-07-23T00:52:40.912Z,86.20
2017-07-23T00:55:07.185Z,86.20
2017-07-23T00:57:33.454Z,86.50
2017-07-23T00:59:59.736Z,85.40
2017-07-23T01:02:25.988Z,85.60
2017-07-23T01:04:52.272Z,85.10
2017-07-23T01:07:18.578Z,83.00
2017-07-23T01:09:45.244Z,88.30
2017-07-23T01:12:11.517Z,88.30
2017-07-23T01:14:37.793Z,86.20
2017-07-23T01:17:04.068Z,87.30
2017-07-23T01:19:30.345Z,86.50
2017-07-23T01:21:56.608Z,87.80
2017-07-23T01:24:22.882Z,87.10
2017-07-23T01:26:49.147Z,86.30
2017-07-23T01:29:15.435Z,86.70
2017-07-23T01:31:41.716Z,86.10
2017-07-23T01:34:08.015Z,86.10
2017-07-23T01:36:34.296Z,85.00
2017-07-23T01:39:00.594Z,86.80
2017-07-23T01:41:26.898Z,85.80
2017-07-23T01:43:53.183Z,86.10
2017-07-23T01:46:19.461Z,87.20
2017-07-23T01:48:46.142Z,86.40
2017-07-23T01:51:12.448Z,86.40
2017-07-23T01:53:38.760Z,87.10
2017-07-23T01:56:05.406Z,87.20
2017-07-23T01:58:31.721Z,87.20
2017-07-23T02:00:58.025Z,85.90
2017-07-23T02:03:24.301Z,86.20
2017-07-23T02:05:50.596Z,85.20
2017-07-23T02:08:16.891Z,85.60
2017-07-23T02:10:43.179Z,85.80
2017-07-23T02:13:09.444Z,84.70
2017-07-23T02:15:35.721Z,83.80
2017-07-23T02:18:01.983Z,83.50
2017-07-23T02:20:28.266Z,85.00
2017-07-23T02:22:54.541Z,85.30
2017-07-23T02:25:20.817Z,85.30
2017-07-23T02:27:47.066Z,86.10
2017-07-23T02:30:13.344Z,86.40
2017-07-23T02:32:39.617Z,86.60
2017-07-23T02:35:05.916Z,87.60
2017-07-23T02:37:32.197Z,88.40
2017-07-23T02:39:58.464Z,87.70
2017-07-23T02:42:24.736Z,88.30
2017-07-23T02:44:51.019Z,87.50
2017-07-23T02:47:17.274Z,88.30
2017-07-23T02:49:43.536Z,88.60
2017-07-23T02:52:09.814Z,89.20
2017-07-23T02:54:36.098Z,89.60
2017-07-23T02:57:02.380Z,90.60
2017-07-23T02:59:28.671Z,91.60
2017-07-23T03:01:54.942Z,91.20
2017-07-23T03:04:21.219Z,91.50
2017-07-23T03:06:47.512Z,91.10
2017-07-23T03:09:14.618Z,89.60
2017-07-23T03:11:40.915Z,89.50
2017-07-23T03:14:07.202Z,90.20
2017-07-23T03:16:33.500Z,91.10
2017-07-23T03:18:59.766Z,89.70
2017-07-23T03:21:26.053Z,90.10
2017-07-23T03:23:52.320Z,90.30
2017-07-23T03:26:18.589Z,89.20
2017-07-23T03:28:44.874Z,89.00
2017-07-23T03:31:11.172Z,88.30
2017-07-23T03:33:37.451Z,87.20
2017-07-23T03:36:03.753Z,87.40
2017-07-23T03:38:30.014Z,86.80
2017-07-23T03:40:56.297Z,86.30
2017-07-23T03:43:22.552Z,86.10
2017-07-23T03:45:48.858Z,86.30
2017-07-23T03:48:15.145Z,86.20
2017-07-23T03:50:41.421Z,86.70
2017-07-23T03:53:07.685Z,85.80
2017-07-23T03:55:33.990Z,85.80
2017-07-23T03:58:00.272Z,86.00
2017-07-23T04:00:26.574Z,86.10
2017-07-23T04:02:52.816Z,85.50
2017-07-23T04:05:19.093Z,85.50
2017-07-23T04:07:45.357Z,85.70
2017-07-23T04:10:11.687Z,85.60
2017-07-23T04:12:37.934Z,85.40
2017-07-23T04:15:04.225Z,86.20
2017-07-23T04:17:30.517Z,85.80
2017-07-23T04:19:57.149Z,84.30
2017-07-23T04:22:23.425Z,84.30
2017-07-23T04:24:49.695Z,84.50
2017-07-23T04:27:15.996Z,84.70
2017-07-23T04:29:42.264Z,85.70
2017-07-23T04:32:08.542Z,85.60
2017-07-23T04:34:34.797Z,86.10
2017-07-23T04:37:01.081Z,85.20
2017-07-23T04:39:27.331Z,84.40
2017-07-23T04:41:53.613Z,84.00
2017-07-23T04:44:20.258Z,83.50
2017-07-23T04:46:46.525Z,83.50
2017-07-23T04:49:12.791Z,83.80
2017-07-23T04:51:39.098Z,84.10
2017-07-23T04:54:05.353Z,84.90
2017-07-23T04:56:31.675Z,85.20
2017-07-23T04:58:57.946Z,85.50
2017-07-23T05:01:24.224Z,85.70
2017-07-23T05:03:50.499Z,85.50
2017-07-23T05:06:16.769Z,84.70
2017-07-23T05:08:43.037Z,84.40
2017-07-23T05:11:09.307Z,84.40
2017-07-23T05:13:35.582Z,84.40
2017-07-23T05:16:01.874Z,83.80
2017-07-23T05:18:28.156Z,83.90
2017-07-23T05:20:54.418Z,85.20
2017-07-23T05:23:20.699Z,84.30
2017-07-23T05:25:46.999Z,84.10
2017-07-23T05:28:13.256Z,84.30
2017-07-23T05:30:39.512Z,84.00
2017-07-23T05:33:05.790Z,85.20
2017-07-23T05:35:32.069Z,86.00
2017-07-23T05:37:58.334Z,86.70
2017-07-23T05:40:24.598Z,86.60
2017-07-23T05:42:50.867Z,86.50
2017-07-23T05:45:17.159Z,86.20
2017-07-23T05:47:43.464Z,85.70
2017-07-23T05:50:09.733Z,84.60
2017-07-23T05:52:36.502Z,85.90
2017-07-23T05:55:02.763Z,85.90
2017-07-23T05:57:29.054Z,85.40
2017-07-23T05:59:55.334Z,85.90
2017-07-23T06:02:21.641Z,86.60
2017-07-23T06:04:47.924Z,83.90
2017-07-23T06:07:14.242Z,83.80
2017-07-23T06:09:40.901Z,83.40
2017-07-23T06:12:07.217Z,83.40
2017-07-23T06:14:33.471Z,83.90
2017-07-23T06:16:59.773Z,83.00
2017-07-23T06:19:26.446Z,83.40
2017-07-23T06:21:52.737Z,83.40
2017-07-23T06:24:19.007Z,83.30
2017-07-23T06:26:45.270Z,81.80
2017-07-23T06:29:11.554Z,81.60
2017-07-23T06:31:37.818Z,81.20
2017-07-23T06:34:04.100Z,81.40
2017-07-23T06:36:30.360Z,81.90
2017-07-23T06:38:56.646Z,81.70
2017-07-23T06:41:22.928Z,82.50
2017-07-23T06:43:49.196Z,83.50
2017-07-23T06:46:15.467Z,82.00
2017-07-23T06:48:41.787Z,82.00
2017-07-23T06:51:08.055Z,78.70
2017-07-23T06:53:34.335Z,77.70
2017-07-23T06:56:00.582Z,74.70
2017-07-23T06:58:26.853Z,78.60
2017-07-23T07:00:53.121Z,78.30
2017-07-23T07:03:19.415Z,78.30
2017-07-23T07:05:45.698Z,75.70
2017-07-23T07:08:11.999Z,77.20
2017-07-23T07:10:38.642Z,77.20
2017-07-23T07:13:05.290Z,75.00
2017-07-23T07:15:31.598Z,75.00
2017-07-23T07:17:57.881Z,72.10
2017-07-23T07:20:24.159Z,73.90
2017-07-23T07:22:50.822Z,73.00
2017-07-23T07:25:17.099Z,73.00
2017-07-23T07:27:43.406Z,73.00
2017-07-23T07:30:09.712Z,73.20
2017-07-23T07:32:35.967Z,72.90
2017-07-23T07:35:02.250Z,71.20
2017-07-23T07:37:28.533Z,72.30
2017-07-23T07:39:54.829Z,72.40
2017-07-23T07:42:21.137Z,70.50
2017-07-23T07:44:47.467Z,71.50
2017-07-23T07:47:14.105Z,70.70
2017-07-23T07:49:40.748Z,68.20
2017-07-23T07:52:07.395Z,68.00
2017-07-23T07:54:33.695Z,68.00
2017-07-23T07:56:59.986Z,66.70
2017-07-23T07:59:26.280Z,66.70
2017-07-23T08:01:52.946Z,67.80
2017-07-23T08:04:19.236Z,67.80
2017-07-23T08:06:45.517Z,67.90
2017-07-23T08:09:11.825Z,68.20
2017-07-23T08:11:38.079Z,68.70
2017-07-23T08:14:04.368Z,66.70
2017-07-23T08:16:30.695Z,67.20
2017-07-23T08:18:57.025Z,65.40
2017-07-23T08:21:23.290Z,66.50
2017-07-23T08:23:49.599Z,67.50
2017-07-23T08:26:15.942Z,65.00
2017-07-23T08:28:42.290Z,63.10
2017-07-23T08:31:08.613Z,64.90
2017-07-23T08:33:34.935Z,65.50
2017-07-23T08:36:01.280Z,64.20
2017-07-23T08:38:27.556Z,64.10
2017-07-23T08:40:54.267Z,63.00
2017-07-23T08:43:20.583Z,63.00
2017-07-23T08:45:46.888Z,64.60
2017-07-23T08:48:13.188Z,62.20
2017-07-23T08:50:39.462Z,61.20
2017-07-23T08:53:05.751Z,61.80
2017-07-23T08:55:32.698Z,64.40
2017-07-23T08:57:59.654Z,64.40
2017-07-23T09:00:26.464Z,64.20
2017-07-23T09:02:54.468Z,63.30
2017-07-23T09:05:21.725Z,63.30
2017-07-23T09:07:50.059Z,61.00
2017-07-23T09:10:17.293Z,61.70
2017-07-23T09:12:44.064Z,58.40
2017-07-23T09:15:10.378Z,62.60
2017-07-23T09:17:36.640Z,58.20
2017-07-23T09:20:05.155Z,63.00
2017-07-23T09:22:31.421Z,61.70
2017-07-23T09:24:58.385Z,61.10
2017-07-23T09:27:26.462Z,63.50
2017-07-23T09:29:53.520Z,62.70
2017-07-23T09:32:20.384Z,62.70
2017-07-23T09:34:47.024Z,65.90
2017-07-23T09:37:13.865Z,63.30
2017-07-23T09:39:40.113Z,67.90
2017-07-23T09:42:06.399Z,66.30
2017-07-23T09:44:32.735Z,67.40
2017-07-23T09:46:59.967Z,63.40
2017-07-23T09:49:26.645Z,60.70
2017-07-23T09:51:52.939Z,60.70
2017-07-23T09:54:19.833Z,59.60
2017-07-23T09:56:46.685Z,61.20
2017-07-23T09:59:12.952Z,62.30
2017-07-23T10:01:39.609Z,60.50
2017-07-23T10:04:06.939Z,60.50
2017-07-23T10:06:34.098Z,56.90
2017-07-23T10:09:00.768Z,55.70
2017-07-23T10:11:27.070Z,55.70
2017-07-23T10:13:53.358Z,59.50
2017-07-23T10:16:19.688Z,57.00
2017-07-23T10:18:45.959Z,57.60
2017-07-23T10:21:12.260Z,59.80
2017-07-23T10:23:38.534Z,61.90
2017-07-23T10:26:05.182Z,58.70
2017-07-23T10:28:31.430Z,56.10
2017-07-23T10:30:57.744Z,59.40
2017-07-23T10:33:24.036Z,59.20
2017-07-23T10:35:51.093Z,56.70
2017-07-23T10:38:17.358Z,56.70
2017-07-23T10:40:43.650Z,58.60
2017-07-23T10:43:09.936Z,59.20
2017-07-23T10:45:36.214Z,57.50
2017-07-23T10:48:02.524Z,60.20
2017-07-23T10:50:28.826Z,58.10
2017-07-23T10:52:55.174Z,59.00
2017-07-23T10:55:21.998Z,60.20
2017-07-23T10:57:48.344Z,58.60
2017-07-23T11:00:16.115Z,60.90
2017-07-23T11:02:42.466Z,60.40
2017-07-23T11:05:09.295Z,63.70
2017-07-23T11:07:36.757Z,63.30
2017-07-23T11:10:03.412Z,62.10
2017-07-23T11:12:29.704Z,62.10
2017-07-23T11:14:56.025Z,65.20
2017-07-23T11:17:22.358Z,62.00
2017-07-23T11:19:48.727Z,63.40
2017-07-23T11:22:18.162Z,64.10
2017-07-23T11:24:45.619Z,64.20
2017-07-23T11:27:12.583Z,63.80
2017-07-23T11:29:39.384Z,63.00
2017-07-23T11:32:05.677Z,63.60
2017-07-23T11:34:32.951Z,66.10
2017-07-23T11:37:00.202Z,63.40
2017-07-23T11:39:26.500Z,65.60
2017-07-23T11:41:52.822Z,64.80
2017-07-23T11:44:19.113Z,64.60
2017-07-23T11:46:45.425Z,64.10
2017-07-23T11:49:11.726Z,62.40
2017-07-23T11:51:38.146Z,64.90
2017-07-23T11:54:06.524Z,64.30
2017-07-23T11:56:32.795Z,64.90
2017-07-23T11:59:00.751Z,64.00
2017-07-23T12:01:27.020Z,66.00
2017-07-23T12:03:54.185Z,64.40
2017-07-23T12:06:21.175Z,65.00
2017-07-23T12:08:47.860Z,58.00
2017-07-23T12:11:15.063Z,58.00
2017-07-23T12:13:41.698Z,58.70
2017-07-23T12:16:09.804Z,58.30
2017-07-23T12:18:36.088Z,58.30
2017-07-23T12:21:04.862Z,59.10
2017-07-23T12:23:31.158Z,57.80
2017-07-23T12:25:57.806Z,56.90
2017-07-23T12:28:24.087Z,58.00
2017-07-23T12:30:50.366Z,58.70
2017-07-23T12:33:16.654Z,56.60
2017-07-23T12:35:44.241Z,47.70
2017-07-23T12:38:11.337Z,47.60
2017-07-23T12:40:38.267Z,41.30
2017-07-23T12:43:05.110Z,36.00
2017-07-23T12:45:31.407Z,31.30
2017-07-23T12:47:57.709Z,27.70
2017-07-23T12:50:24.370Z,25.70
2017-07-23T12:52:50.700Z,25.80
2017-07-23T12:55:17.826Z,25.90
2017-07-23T12:57:44.482Z,26.00
2017-07-23T13:00:11.148Z,26.00
2017-07-23T13:02:37.442Z,26.90
2017-07-23T13:05:04.342Z,30.40
2017-07-23T13:07:30.645Z,35.60
2017-07-23T13:09:57.549Z,38.70
2017-07-23T13:12:23.832Z,41.70
2017-07-23T13:14:50.118Z,42.80
2017-07-23T13:17:16.352Z,42.60
2017-07-23T13:19:42.656Z,43.30
2017-07-23T13:22:08.942Z,40.60
2017-07-23T13:24:35.247Z,38.30
2017-07-23T13:27:02.166Z,36.00
2017-07-23T13:29:28.742Z,37.10
2017-07-23T13:31:55.128Z,36.20
2017-07-23T13:34:21.770Z,38.10
2017-07-23T13:36:48.429Z,41.10
2017-07-23T13:39:14.695Z,41.10
2017-07-23T13:41:41.010Z,41.80
2017-07-23T13:44:07.357Z,42.50
2017-07-23T13:46:33.675Z,42.00
2017-07-23T13:49:00.950Z,45.30
2017-07-23T13:51:27.224Z,46.60
2017-07-23T13:53:53.514Z,43.50
2017-07-23T13:56:19.829Z,45.00
2017-07-23T13:58:46.131Z,44.20
2017-07-23T14:01:12.697Z,42.80
2017-07-23T14:03:38.972Z,41.40
2017-07-23T14:06:05.241Z,41.70
2017-07-23T14:08:31.535Z,43.50
2017-07-23T14:10:57.850Z,42.60
2017-07-23T14:13:24.515Z,45.00
2017-07-23T14:15:50.809Z,45.00
2017-07-23T14:18:17.072Z,42.20
2017-07-23T14:20:43.433Z,40.50
2017-07-23T14:23:10.034Z,40.50
2017-07-23T14:25:36.335Z,41.50
2017-07-23T14:28:02.630Z,40.10
2017-07-23T14:30:28.935Z,40.60
2017-07-23T14:32:56.080Z,40.70
2017-07-23T14:35:22.437Z,38.30
2017-07-23T14:37:48.735Z,40.10
2017-07-23T14:40:15.045Z,41.60
2017-07-23T14:42:41.714Z,42.50
2017-07-23T14:45:08.001Z,42.50
2017-07-23T14:47:34.874Z,40.10
2017-07-23T14:50:01.173Z,42.70
2017-07-23T14:52:27.480Z,41.90
2017-07-23T14:54:53.751Z,41.10
2017-07-23T14:57:20.088Z,41.00
2017-07-23T14:59:46.354Z,40.50
2017-07-23T15:02:12.650Z,38.70
2017-07-23T15:04:38.965Z,41.00
2017-07-23T15:07:05.686Z,43.10
2017-07-23T15:09:32.035Z,43.10
2017-07-23T15:11:58.730Z,45.00
2017-07-23T15:14:25.084Z,45.00
2017-07-23T15:16:51.377Z,46.50
2017-07-23T15:19:17.940Z,47.40
2017-07-23T15:21:44.280Z,50.70
2017-07-23T15:24:10.575Z,48.50
2017-07-23T15:26:36.888Z,49.00
2017-07-23T15:29:03.197Z,49.00
2017-07-23T15:31:29.505Z,47.30
2017-07-23T15:33:55.849Z,44.40
2017-07-23T15:36:22.182Z,39.50
2017-07-23T15:38:48.475Z,37.60
2017-07-23T15:41:14.748Z,33.80
2017-07-23T15:43:41.159Z,33.90
2017-07-23T15:46:07.456Z,35.20
2017-07-23T15:48:33.764Z,33.40
2017-07-23T15:51:00.092Z,33.60
2017-07-23T15:53:26.406Z,32.20
2017-07-23T15:55:52.702Z,34.60
2017-07-23T15:58:19.310Z,35.30
2017-07-23T16:00:45.602Z,35.80
2017-07-23T16:03:11.891Z,38.70
2017-07-23T16:05:39.096Z,38.80
2017-07-23T16:08:05.397Z,40.70
2017-07-23T16:10:32.067Z,44.90
2017-07-23T16:12:58.346Z,44.90
2017-07-23T16:15:24.961Z,45.60
2017-07-23T16:17:51.221Z,46.10
2017-07-23T16:20:17.489Z,47.00
2017-07-23T16:22:43.772Z,47.10
2017-07-23T16:25:10.685Z,49.90
2017-07-23T16:27:37.019Z,49.00
2017-07-23T16:30:03.305Z,49.60
2017-07-23T16:32:29.654Z,47.10
2017-07-23T16:34:55.940Z,49.00
2017-07-23T16:37:22.215Z,47.60
2017-07-23T16:39:48.527Z,47.30
2017-07-23T16:42:15.372Z,47.60
2017-07-23T16:44:42.416Z,46.30
2017-07-23T16:47:08.703Z,42.60
2017-07-23T16:49:34.996Z,42.80
2017-07-23T16:52:01.230Z,43.70
2017-07-23T16:54:27.817Z,42.90
2017-07-23T16:56:54.100Z,44.00
2017-07-23T16:59:20.390Z,43.90
2017-07-23T17:01:46.656Z,46.00
2017-07-23T17:04:12.984Z,48.20
2017-07-23T17:06:39.598Z,48.00
2017-07-23T17:09:05.930Z,48.20
2017-07-23T17:11:32.274Z,51.90
2017-07-23T17:13:59.810Z,48.40
2017-07-23T17:16:26.143Z,49.50
2017-07-23T17:18:52.833Z,47.40
2017-07-23T17:21:19.205Z,47.40
2017-07-23T17:23:45.536Z,48.10
2017-07-23T17:26:11.837Z,47.40
2017-07-23T17:28:38.165Z,47.80
2017-07-23T17:31:04.448Z,46.90
2017-07-23T17:33:30.739Z,47.10
2017-07-23T17:35:57.078Z,49.40
2017-07-23T17:38:23.394Z,47.90
2017-07-23T17:40:49.660Z,48.60
2017-07-23T17:43:16.270Z,50.20
2017-07-23T17:45:42.606Z,49.80
2017-07-23T17:48:09.197Z,51.70
2017-07-23T17:50:35.534Z,51.60
2017-07-23T17:53:01.850Z,51.90
2017-07-23T17:55:28.184Z,52.50
2017-07-23T17:57:54.499Z,54.10
2017-07-23T18:00:20.845Z,54.50
2017-07-23T18:02:47.145Z,56.20
2017-07-23T18:05:13.639Z,53.50
2017-07-23T18:07:40.021Z,54.50
2017-07-23T18:10:06.689Z,53.90
2017-07-23T18:12:32.987Z,53.00
2017-07-23T18:14:59.278Z,55.50
2017-07-23T18:17:27.236Z,55.40
2017-07-23T18:19:53.533Z,54.20
2017-07-23T18:22:20.262Z,53.60
2017-07-23T18:24:46.981Z,54.90
2017-07-23T18:27:13.343Z,54.30
2017-07-23T18:29:39.621Z,53.60
2017-07-23T18:32:05.941Z,53.50
2017-07-23T18:34:32.680Z,53.30
2017-07-23T18:36:59.029Z,53.30
2017-07-23T18:39:25.751Z,54.90
2017-07-23T18:41:52.605Z,54.90
2017-07-23T18:44:18.930Z,56.90
2017-07-23T18:46:45.227Z,54.50
2017-07-23T18:49:12.652Z,55.10
2017-07-23T18:51:38.980Z,57.60
2017-07-23T18:54:05.314Z,54.80
2017-07-23T18:56:32.574Z,57.10
2017-07-23T18:59:01.974Z,56.50
2017-07-23T19:01:28.299Z,55.50
2017-07-23T19:03:54.883Z,54.60
2017-07-23T19:06:22.166Z,54.10
2017-07-23T19:08:49.236Z,55.50
2017-07-23T19:11:15.516Z,55.50
2017-07-23T19:13:41.849Z,54.90
2017-07-23T19:16:08.158Z,55.50
2017-07-23T19:18:34.513Z,55.50
2017-07-23T19:21:00.813Z,55.40
2017-07-23T19:23:27.198Z,55.80
2017-07-23T19:25:53.934Z,54.90
2017-07-23T19:28:20.249Z,54.90
2017-07-23T19:30:46.628Z,55.50
2017-07-23T19:33:12.980Z,56.00
2017-07-23T19:35:39.295Z,55.00
2017-07-23T19:38:05.616Z,54.40
2017-07-23T19:40:31.952Z,55.50
2017-07-23T19:42:58.282Z,54.80
2017-07-23T19:45:24.636Z,56.30
2017-07-23T19:47:51.882Z,55.70
2017-07-23T19:50:18.213Z,56.80
2017-07-23T19:52:44.598Z,56.10
2017-07-23T19:55:10.984Z,56.00
2017-07-23T19:57:37.282Z,55.90
2017-07-23T20:00:03.578Z,54.90
2017-07-23T20:02:30.701Z,55.60
2017-07-23T20:04:57.071Z,57.10
2017-07-23T20:07:24.269Z,55.20
2017-07-23T20:09:52.402Z,55.90
2017-07-23T20:12:19.765Z,58.50
2017-07-23T20:14:46.232Z,58.60
2017-07-23T20:17:12.642Z,57.70
2017-07-23T20:19:39.054Z,60.10
2017-07-23T20:22:05.397Z,60.20
2017-07-23T20:24:31.829Z,59.20
2017-07-23T20:26:58.149Z,58.80
2017-07-23T20:29:24.473Z,59.40
2017-07-23T20:31:51.063Z,59.30
2017-07-23T20:34:17.469Z,60.00
2017-07-23T20:36:43.802Z,61.50
2017-07-23T20:39:10.188Z,61.30
2017-07-23T20:41:38.025Z,61.10
2017-07-23T20:44:05.236Z,61.80
2017-07-23T20:46:32.627Z,62.10
2017-07-23T20:51:55.119Z,61.50
2017-07-23T20:54:28.395Z,61.90
2017-07-23T20:57:08.885Z,61.90
2017-07-23T21:11:11.704Z,62.30
2017-07-23T21:16:38.289Z,63.60
2017-07-23T21:19:08.829Z,63.30
2017-07-23T21:21:37.187Z,63.50
2017-07-23T21:24:06.666Z,63.50
2017-07-23T21:38:07.852Z,65.60
2017-07-23T21:43:55.597Z,66.10
2017-07-23T21:46:51.676Z,66.00
2017-07-23T21:52:23.003Z,66.30
2017-07-23T21:54:49.306Z,66.30
2017-07-23T21:57:15.564Z,65.60
2017-07-23T21:59:41.879Z,66.00
2017-07-23T22:02:08.176Z,66.70
2017-07-23T22:04:34.466Z,66.10
2017-07-23T22:07:00.745Z,66.20
2017-07-23T22:09:27.439Z,65.40
2017-07-23T22:11:53.726Z,65.40
2017-07-23T22:14:19.997Z,64.80
2017-07-23T22:16:48.825Z,61.30
2017-07-23T22:21:54.585Z,61.80
2017-07-23T22:24:22.554Z,62.00
2017-07-23T22:26:49.931Z,64.70
2017-07-23T22:29:18.688Z,65.10
2017-07-23T22:31:44.999Z,66.40
2017-07-23T22:34:11.249Z,67.40
2017-07-23T22:36:37.521Z,68.10
2017-07-23T22:39:03.818Z,68.00
2017-07-23T22:41:30.096Z,68.30
2017-07-23T22:43:56.365Z,68.40
2017-07-23T22:46:22.668Z,68.60
2017-07-23T22:48:48.933Z,68.70
2017-07-23T22:51:15.205Z,69.00
2017-07-23T22:53:41.474Z,68.80
2017-07-23T22:56:07.763Z,68.90
2017-07-23T22:58:34.041Z,69.10
2017-07-23T23:01:00.328Z,69.40
2017-07-23T23:03:26.626Z,69.40
2017-07-23T23:05:52.941Z,69.40
2017-07-23T23:08:19.204Z,69.60
2017-07-23T23:10:45.489Z,69.40
2017-07-23T23:13:11.771Z,70.00
2017-07-23T23:15:38.062Z,69.50
2017-07-23T23:18:04.314Z,69.80
2017-07-23T23:20:30.606Z,69.70
2017-07-23T23:22:56.876Z,69.30
2017-07-23T23:25:23.184Z,69.10
2017-07-23T23:27:49.840Z,69.10
2017-07-23T23:30:16.497Z,69.30
2017-07-23T23:32:42.770Z,69.30
2017-07-23T23:35:09.057Z,69.90
2017-07-23T23:37:35.326Z,70.70
2017-07-23T23:40:01.593Z,70.70
2017-07-23T23:42:28.229Z,70.90
2017-07-23T23:44:54.513Z,70.90
2017-07-23T23:47:20.783Z,70.80
2017-07-23T23:49:47.037Z,71.20
2017-07-23T23:52:13.325Z,71.60
2017-07-23T23:54:39.606Z,72.40
2017-07-23T23:57:05.892Z,72.00
2017-07-23T23:59:32.176Z,71.70
